createdAt,value
2022-10-13T00:01:40.263Z,9.83
2022-10-13T00:04:11.575Z,12.43
2022-10-13T00:06:41.828Z,15.73
2022-10-13T00:09:10.387Z,10.83
2022-10-13T00:11:38.923Z,10.47
2022-10-13T00:14:07.550Z,13.43
2022-10-13T00:16:36.074Z,10.00
2022-10-13T00:19:11.693Z,12.77
2022-10-13T00:21:42.778Z,12.53
2022-10-13T00:24:12.429Z,10.90
2022-10-13T00:26:41.272Z,10.93
2022-10-13T00:29:12.221Z,8.93
2022-10-13T00:31:41.285Z,12.03
2022-10-13T00:34:12.352Z,13.57
2022-10-13T00:36:40.926Z,10.80
2022-10-13T00:39:09.558Z,12.70
2022-10-13T00:41:38.913Z,12.17
2022-10-13T00:44:28.492Z,13.37
2022-10-13T00:46:57.308Z,12.10
2022-10-13T00:49:35.679Z,9.90
2022-10-13T00:52:04.423Z,13.73
2022-10-13T00:54:33.825Z,12.17
2022-10-13T00:57:05.277Z,11.80
2022-10-13T00:59:35.264Z,11.57
2022-10-13T01:02:04.211Z,9.33
2022-10-13T01:04:39.063Z,11.47
2022-10-13T01:07:08.839Z,12.13
2022-10-13T01:09:37.983Z,13.77
2022-10-13T01:12:16.041Z,13.07
2022-10-13T01:14:50.891Z,14.00
2022-10-13T01:17:30.241Z,10.20
2022-10-13T01:20:31.017Z,9.23
2022-10-13T01:23:19.876Z,13.87
2022-10-13T01:26:10.279Z,9.40
2022-10-13T01:28:59.210Z,9.13
2022-10-13T01:31:35.177Z,9.53
2022-10-13T01:34:12.713Z,9.57
2022-10-13T01:36:49.667Z,10.60
2022-10-13T01:39:26.686Z,10.60
2022-10-13T01:42:11.440Z,8.90
2022-10-13T01:44:43.367Z,13.00
2022-10-13T01:47:16.962Z,10.60
2022-10-13T01:49:46.731Z,11.37
2022-10-13T01:52:18.396Z,15.60
2022-10-13T01:54:50.732Z,12.93
2022-10-13T01:57:33.071Z,11.77
2022-10-13T02:00:05.431Z,11.20
2022-10-13T02:02:43.439Z,14.67
2022-10-13T02:05:26.952Z,13.63
2022-10-13T02:08:03.904Z,12.33
2022-10-13T02:10:39.961Z,10.20
2022-10-13T02:13:12.876Z,9.60
2022-10-13T02:15:47.418Z,9.67
2022-10-13T02:18:21.424Z,10.50
2022-10-13T02:20:50.473Z,10.17
2022-10-13T02:23:20.416Z,11.63
2022-10-13T02:25:50.488Z,9.87
2022-10-13T02:28:20.582Z,11.87
2022-10-13T02:30:50.309Z,10.23
2022-10-13T02:33:20.388Z,10.03
2022-10-13T02:35:50.545Z,10.57
2022-10-13T02:38:19.007Z,12.97
2022-10-13T02:40:47.916Z,13.53
2022-10-13T02:43:17.045Z,12.17
2022-10-13T02:45:45.819Z,13.23
2022-10-13T02:48:14.527Z,13.80
2022-10-13T02:50:44.777Z,12.57
2022-10-13T02:53:13.321Z,12.67
2022-10-13T02:55:41.754Z,12.27
2022-10-13T02:58:10.248Z,10.03
2022-10-13T03:00:41.180Z,13.07
2022-10-13T03:03:10.057Z,10.83
2022-10-13T03:05:39.115Z,12.70
2022-10-13T03:08:10.185Z,10.43
2022-10-13T03:10:38.733Z,11.37
2022-10-13T03:13:07.228Z,10.10
2022-10-13T03:15:37.420Z,10.93
2022-10-13T03:18:06.508Z,11.97
2022-10-13T03:20:35.390Z,13.77
2022-10-13T03:23:04.315Z,16.00
2022-10-13T03:25:34.599Z,16.73
2022-10-13T03:28:04.242Z,15.93
2022-10-13T03:30:34.174Z,15.43
2022-10-13T03:33:04.117Z,18.53
2022-10-13T03:35:34.143Z,18.63
2022-10-13T03:38:02.621Z,20.70
2022-10-13T03:40:31.735Z,18.23
2022-10-13T03:43:03.156Z,19.80
2022-10-13T03:45:31.818Z,20.93
2022-10-13T03:48:00.966Z,19.77
2022-10-13T03:50:29.524Z,18.80
2022-10-13T03:52:57.993Z,20.47
2022-10-13T03:55:26.648Z,19.43
2022-10-13T03:57:56.563Z,14.93
2022-10-13T04:00:26.745Z,19.33
2022-10-13T04:02:55.441Z,18.37
2022-10-13T04:05:26.583Z,18.53
2022-10-13T04:07:55.325Z,16.73
2022-10-13T04:10:25.806Z,18.50
2022-10-13T04:12:55.382Z,15.50
2022-10-13T04:15:25.508Z,17.83
2022-10-13T04:17:54.869Z,18.27
2022-10-13T04:20:23.463Z,23.53
2022-10-13T04:22:52.063Z,20.70
2022-10-13T04:25:20.978Z,19.60
2022-10-13T04:27:50.470Z,18.47
2022-10-13T04:30:20.156Z,23.00
2022-10-13T04:32:50.139Z,21.97
2022-10-13T04:35:18.946Z,21.73
2022-10-13T04:37:47.402Z,18.00
2022-10-13T04:40:16.517Z,16.90
2022-10-13T04:42:45.449Z,17.23
2022-10-13T04:45:14.648Z,18.97
2022-10-13T04:47:43.222Z,17.00
2022-10-13T04:50:13.116Z,18.77
2022-10-13T04:52:43.036Z,15.57
2022-10-13T04:55:11.760Z,16.60
2022-10-13T04:57:40.987Z,19.17
2022-10-13T05:00:12.001Z,17.70
2022-10-13T05:02:42.423Z,22.37
2022-10-13T05:05:13.534Z,22.37
2022-10-13T05:07:41.975Z,19.20
2022-10-13T05:10:11.084Z,17.07
2022-10-13T05:12:39.590Z,18.10
2022-10-13T05:15:09.321Z,17.83
2022-10-13T05:17:39.467Z,16.77
2022-10-13T05:20:10.442Z,19.03
2022-10-13T05:22:40.996Z,18.20
2022-10-13T05:25:10.937Z,19.63
2022-10-13T05:27:39.487Z,21.70
2022-10-13T05:30:09.869Z,22.07
2022-10-13T05:32:38.892Z,20.50
2022-10-13T05:35:08.642Z,19.33
2022-10-13T05:37:38.425Z,25.40
2022-10-13T05:40:10.315Z,19.93
2022-10-13T05:42:38.799Z,20.57
2022-10-13T05:45:10.906Z,22.87
2022-10-13T05:47:39.512Z,18.40
2022-10-13T05:50:09.385Z,20.83
2022-10-13T05:52:38.796Z,25.67
2022-10-13T05:55:12.317Z,23.30
2022-10-13T05:57:43.853Z,21.53
2022-10-13T06:00:16.166Z,22.70
2022-10-13T06:02:51.449Z,18.80
2022-10-13T06:05:23.892Z,21.17
2022-10-13T06:07:53.613Z,19.30
2022-10-13T06:10:23.640Z,24.90
2022-10-13T06:12:55.497Z,22.33
2022-10-13T06:15:28.022Z,20.43
2022-10-13T06:17:57.452Z,22.40
2022-10-13T06:20:27.706Z,21.13
2022-10-13T06:22:56.653Z,23.23
2022-10-13T06:25:26.754Z,17.77
2022-10-13T06:27:55.693Z,17.93
2022-10-13T06:30:25.814Z,23.37
2022-10-13T06:32:56.316Z,21.17
2022-10-13T06:35:25.145Z,21.20
2022-10-13T06:37:53.658Z,17.70
2022-10-13T06:40:22.191Z,19.03
2022-10-13T06:42:55.673Z,18.70
2022-10-13T06:45:24.835Z,20.20
2022-10-13T06:47:55.457Z,18.43
2022-10-13T06:50:26.733Z,20.50
2022-10-13T06:52:58.445Z,18.03
2022-10-13T06:55:27.861Z,19.80
2022-10-13T06:57:58.214Z,19.47
2022-10-13T07:00:26.842Z,21.93
2022-10-13T07:02:55.946Z,20.67
2022-10-13T07:05:25.922Z,20.30
2022-10-13T07:07:55.158Z,19.63
2022-10-13T07:10:24.295Z,19.17
2022-10-13T07:12:52.922Z,19.10
2022-10-13T07:15:24.856Z,20.37
2022-10-13T07:17:55.923Z,18.67
2022-10-13T07:20:24.849Z,22.10
2022-10-13T07:22:55.133Z,21.57
2022-10-13T07:25:27.104Z,18.53
2022-10-13T07:27:56.646Z,19.47
2022-10-13T07:30:27.755Z,18.70
2022-10-13T07:32:56.367Z,19.00
2022-10-13T07:35:30.471Z,18.23
2022-10-13T07:38:00.645Z,21.53
2022-10-13T07:40:29.480Z,24.87
2022-10-13T07:42:58.449Z,20.80
2022-10-13T07:45:30.220Z,17.23
2022-10-13T07:47:59.644Z,15.47
2022-10-13T07:50:29.949Z,14.80
2022-10-13T07:52:58.957Z,15.83
2022-10-13T07:55:27.854Z,15.23
2022-10-13T07:57:56.444Z,18.80
2022-10-13T08:00:27.893Z,13.73
2022-10-13T08:02:59.233Z,13.17
2022-10-13T08:05:28.457Z,13.97
2022-10-13T08:07:58.580Z,16.50
2022-10-13T08:10:29.547Z,17.53
2022-10-13T08:12:58.708Z,15.00
2022-10-13T08:15:27.998Z,15.40
2022-10-13T08:18:01.751Z,16.53
2022-10-13T08:20:41.014Z,16.63
2022-10-13T08:23:13.630Z,15.83
2022-10-13T08:25:46.061Z,15.73
2022-10-13T08:28:21.224Z,13.17
2022-10-13T08:30:50.638Z,13.17
2022-10-13T08:33:21.337Z,15.13
2022-10-13T08:35:50.694Z,14.40
2022-10-13T08:38:21.072Z,15.90
2022-10-13T08:40:54.695Z,15.30
2022-10-13T08:43:25.581Z,18.57
2022-10-13T08:45:59.220Z,19.63
2022-10-13T08:48:36.435Z,12.53
2022-10-13T08:51:09.121Z,16.03
2022-10-13T08:53:40.415Z,17.03
2022-10-13T08:56:16.074Z,17.07
2022-10-13T08:58:45.381Z,15.27
2022-10-13T09:01:17.549Z,17.77
2022-10-13T09:03:53.253Z,18.10
2022-10-13T09:06:29.001Z,14.83
2022-10-13T09:08:59.946Z,16.77
2022-10-13T09:11:32.609Z,14.07
2022-10-13T09:14:04.589Z,18.17
2022-10-13T09:16:39.076Z,16.57
2022-10-13T09:19:23.799Z,15.97
2022-10-13T09:21:56.205Z,15.23
2022-10-13T09:24:27.587Z,15.07
2022-10-13T09:27:10.916Z,18.73
2022-10-13T09:29:42.272Z,17.80
2022-10-13T09:32:24.037Z,17.50
2022-10-13T09:34:55.674Z,19.83
2022-10-13T09:37:31.633Z,19.47
2022-10-13T09:40:24.035Z,17.83
2022-10-13T09:42:54.899Z,15.23
2022-10-13T09:45:27.659Z,19.60
2022-10-13T09:47:58.755Z,18.97
2022-10-13T09:50:33.448Z,19.17
2022-10-13T09:53:20.222Z,22.93
2022-10-13T09:55:50.135Z,45.03
2022-10-13T09:58:26.899Z,36.53
2022-10-13T10:00:57.741Z,28.63
2022-10-13T10:03:31.959Z,33.57
2022-10-13T10:06:05.246Z,32.87
2022-10-13T10:09:02.169Z,37.20
2022-10-13T10:11:34.934Z,17.67
2022-10-13T10:14:14.127Z,17.77
2022-10-13T10:16:53.674Z,24.07
2022-10-13T10:19:28.709Z,22.97
2022-10-13T10:22:05.971Z,17.57
2022-10-13T10:24:43.348Z,17.40
2022-10-13T10:29:56.304Z,14.27
2022-10-13T10:32:36.652Z,12.97
2022-10-13T10:35:14.779Z,12.53
2022-10-13T10:38:05.512Z,12.23
2022-10-13T10:40:45.572Z,16.13
2022-10-13T10:43:51.825Z,13.33
2022-10-13T10:46:24.551Z,12.60
2022-10-13T10:48:58.769Z,11.03
2022-10-13T10:51:34.335Z,11.50
2022-10-13T10:54:18.857Z,11.97
2022-10-13T10:56:57.597Z,13.57
2022-10-13T10:59:51.556Z,9.80
2022-10-13T11:02:58.744Z,14.33
2022-10-13T11:05:32.325Z,11.33
2022-10-13T11:08:04.978Z,11.27
2022-10-13T11:10:35.306Z,9.53
2022-10-13T11:13:27.822Z,11.37
2022-10-13T11:15:57.401Z,10.70
2022-10-13T11:18:59.469Z,7.97
2022-10-13T11:21:28.494Z,9.93
2022-10-13T11:24:01.814Z,13.17
2022-10-13T11:26:44.370Z,13.67
2022-10-13T11:29:21.661Z,10.97
2022-10-13T11:31:53.563Z,8.63
2022-10-13T11:34:31.248Z,7.43
2022-10-13T11:37:02.292Z,9.30
2022-10-13T11:40:02.564Z,10.13
2022-10-13T11:43:08.202Z,8.97
2022-10-13T11:45:58.468Z,9.13
2022-10-13T11:49:04.215Z,8.23
2022-10-13T11:51:43.316Z,7.50
2022-10-13T11:54:25.463Z,10.40
2022-10-13T11:56:56.356Z,8.77
2022-10-13T11:59:31.307Z,8.27
2022-10-13T12:02:01.685Z,8.60
2022-10-13T12:04:32.271Z,12.07
2022-10-13T12:07:05.539Z,9.03
2022-10-13T12:09:36.446Z,8.60
2022-10-13T12:12:13.036Z,8.13
2022-10-13T12:14:45.240Z,9.60
2022-10-13T12:17:24.302Z,10.47
2022-10-13T12:19:53.793Z,13.23
2022-10-13T12:22:22.691Z,10.97
2022-10-13T12:25:02.719Z,13.60
2022-10-13T12:27:33.866Z,8.47
2022-10-13T12:30:05.590Z,13.17
2022-10-13T12:32:39.273Z,9.20
2022-10-13T12:35:21.242Z,12.70
2022-10-13T12:37:50.876Z,12.77
2022-10-13T12:40:21.052Z,14.77
2022-10-13T12:42:51.323Z,15.33
2022-10-13T12:45:24.609Z,11.20
2022-10-13T12:47:55.384Z,12.27
2022-10-13T12:50:39.476Z,11.73
2022-10-13T12:53:22.174Z,10.53
2022-10-13T12:55:59.142Z,15.93
2022-10-13T12:58:32.142Z,10.93
2022-10-13T13:01:11.249Z,11.57
2022-10-13T13:03:43.767Z,12.70
2022-10-13T13:06:25.405Z,10.83
2022-10-13T13:09:28.691Z,14.03
2022-10-13T13:12:19.586Z,12.70
2022-10-13T13:14:52.411Z,11.23
2022-10-13T13:17:53.293Z,13.10
2022-10-13T13:20:39.205Z,14.40
2022-10-13T13:23:08.976Z,19.57
2022-10-13T13:25:38.055Z,15.97
2022-10-13T13:28:15.501Z,19.23
2022-10-13T13:30:45.414Z,18.53
2022-10-13T13:33:18.533Z,17.57
2022-10-13T13:35:50.191Z,14.13
2022-10-13T13:38:22.066Z,15.73
2022-10-13T13:40:52.485Z,15.87
2022-10-13T13:43:23.690Z,17.77
2022-10-13T13:45:53.152Z,14.73
2022-10-13T13:48:25.183Z,19.97
2022-10-13T13:50:54.370Z,18.93
2022-10-13T13:53:25.011Z,14.50
2022-10-13T13:55:55.820Z,19.00
2022-10-13T13:58:25.646Z,15.83
2022-10-13T14:00:57.838Z,16.67
2022-10-13T14:03:29.160Z,15.03
2022-10-13T14:06:00.580Z,15.83
2022-10-13T14:08:32.403Z,17.00
2022-10-13T14:11:01.485Z,13.87
2022-10-13T14:13:30.607Z,15.53
2022-10-13T14:16:01.448Z,14.80
2022-10-13T14:18:33.266Z,14.73
2022-10-13T14:21:02.463Z,13.63
2022-10-13T14:23:32.997Z,16.23
2022-10-13T14:26:06.326Z,17.53
2022-10-13T14:28:36.764Z,18.27
2022-10-13T14:31:10.498Z,14.50
2022-10-13T14:33:42.620Z,14.27
2022-10-13T14:36:14.318Z,14.47
2022-10-13T14:38:44.651Z,20.50
2022-10-13T14:41:13.786Z,14.60
2022-10-13T14:43:43.386Z,12.87
2022-10-13T22:22:04.561Z,78.73
2022-10-13T22:24:33.628Z,72.30
2022-10-13T22:27:04.952Z,78.80
2022-10-13T22:29:34.652Z,87.17
2022-10-13T22:32:06.407Z,73.00
2022-10-13T22:34:35.548Z,80.60
2022-10-13T22:37:05.716Z,83.90
2022-10-13T22:39:34.556Z,82.93
2022-10-13T22:42:03.250Z,75.77
2022-10-13T22:44:32.649Z,80.53
2022-10-13T22:47:01.378Z,78.93
2022-10-13T22:49:30.240Z,80.37
2022-10-13T22:52:00.480Z,71.70
2022-10-13T22:54:31.388Z,77.07
2022-10-13T22:57:00.691Z,74.40
2022-10-13T22:59:29.812Z,71.30
2022-10-13T23:02:02.669Z,69.00
2022-10-13T23:04:33.449Z,64.90
2022-10-13T23:07:02.922Z,76.10
2022-10-13T23:09:34.144Z,69.70
2022-10-13T23:12:03.686Z,67.13
2022-10-13T23:14:32.825Z,67.87
2022-10-13T23:17:05.779Z,66.67
2022-10-13T23:19:38.155Z,56.10
2022-10-13T23:22:07.479Z,61.10
2022-10-13T23:24:37.966Z,75.30
2022-10-13T23:27:06.653Z,63.60
2022-10-13T23:29:35.303Z,64.70
2022-10-13T23:32:09.509Z,75.03
2022-10-13T23:34:42.506Z,68.83
2022-10-13T23:37:11.522Z,59.70
2022-10-13T23:39:44.104Z,59.13
2022-10-13T23:42:14.327Z,55.00
2022-10-13T23:44:42.891Z,66.20
2022-10-13T23:47:11.609Z,67.00
2022-10-13T23:49:40.386Z,60.73
2022-10-13T23:52:11.052Z,73.87
2022-10-13T23:54:41.598Z,68.47
2022-10-13T23:57:13.233Z,80.60
2022-10-13T23:59:42.341Z,77.40
